| time (UTC) | temp F | wind direction | speed knots | gust knots | rain 1hr in | rain 24hr in | rain mn in | humidity % | barometer mb |
| 20260508024515 | 43 | 255 | 5.2 | 7.8 | 0.00 | 0.17 | 0.00 | 90 | 1004.3 |
| 20260508023519 | 42 | 271 | 3.5 | 6.1 | 0.00 | 0.17 | 0.00 | 90 | 1004.4 |
| 20260508022522 | 42 | 277 | 3.5 | 6.1 | 0.00 | 0.17 | 0.00 | 90 | 1004.4 |
| 20260508021526 | 42 | 227 | 3.5 | 4.3 | 0.00 | 0.17 | 0.00 | 90 | 1004.3 |
| 20260508020550 | 42 | 216 | 3.5 | 4.3 | 0.00 | 0.17 | 0.00 | 90 | 1004.5 |
| 20260508015515 | 42 | 208 | 3.5 | 4.3 | 0.00 | 0.17 | 0.00 | 89 | 1004.4 |
| 20260508014519 | 42 | 255 | 5.2 | 7.0 | 0.00 | 0.17 | 0.00 | 89 | 1004.0 |
| 20260508013543 | 42 | 230 | 4.3 | 7.0 | 0.00 | 0.17 | 0.00 | 89 | 1004.3 |
| 20260508012527 | 43 | 225 | 4.3 | 6.1 | 0.00 | 0.17 | 0.00 | 88 | 1004.7 |
| 20260508011530 | 43 | 219 | 3.5 | 6.1 | 0.00 | 0.17 | 0.00 | 87 | 1004.6 |
| 20260508010516 | 43 | 236 | 3.5 | 6.1 | 0.00 | 0.17 | 0.00 | 87 | 1004.5 |
| 20260508005520 | 43 | 267 | 4.3 | 7.8 | 0.00 | 0.17 | 0.00 | 86 | 1004.2 |
| 20260508004523 | 43 | 262 | 4.3 | 6.1 | 0.00 | 0.17 | 0.00 | 86 | 1003.9 |
| 20260508003527 | 43 | 240 | 4.3 | 7.0 | 0.00 | 0.17 | 0.00 | 85 | 1004.1 |
| 20260508002551 | 43 | 241 | 4.3 | 7.0 | 0.00 | 0.17 | 0.00 | 84 | 1004.2 |
| 20260508001536 | 44 | 270 | 6.1 | 9.6 | 0.00 | 0.17 | 0.00 | 84 | 1004.1 |
| 20260508000520 | 44 | 254 | 4.3 | 8.7 | 0.00 | 0.17 | 0.00 | 84 | 1004.0 |
| 20260507235603 | 44 | 232 | 4.3 | 6.1 | 0.00 | 0.17 | 0.00 | 83 | 1003.4 |
| 20260507234547 | 45 | 243 | 6.1 | 7.8 | 0.00 | 0.17 | 0.00 | 82 | 1003.4 |
| 20260507233531 | 46 | 250 | 4.3 | 7.0 | 0.00 | 0.17 | 0.00 | 82 | 1003.5 |
| 20260507232516 | 47 | 249 | 7.8 | 13.0 | 0.00 | 0.17 | 0.00 | 81 | 1003.5 |
| 20260507231520 | 48 | 281 | 6.1 | 10.4 | 0.00 | 0.17 | 0.00 | 80 | 1003.3 |
| 20260507230523 | 49 | 269 | 7.0 | 10.4 | 0.00 | 0.17 | 0.00 | 80 | 1002.9 |
| 20260507225521 | 49 | 281 | 7.8 | 11.3 | 0.00 | 0.17 | 0.17 | 80 | 1002.7 |
| 20260507224519 | 49 | 262 | 7.8 | 11.3 | 0.00 | 0.17 | 0.17 | 80 | 1002.8 |
| 20260507223516 | 48 | 243 | 6.1 | 9.6 | 0.00 | 0.17 | 0.17 | 81 | 1003.0 |
| 20260507222520 | 47 | 258 | 6.1 | 8.7 | 0.00 | 0.17 | 0.17 | 80 | 1002.9 |
| 20260507221524 | 48 | 250 | 7.0 | 10.4 | 0.00 | 0.17 | 0.17 | 80 | 1002.4 |
| 20260507220527 | 48 | 255 | 6.1 | 8.7 | 0.00 | 0.17 | 0.17 | 80 | 1003.1 |
| 20260507215531 | 48 | 257 | 5.2 | 7.0 | 0.00 | 0.17 | 0.17 | 80 | 1003.0 |
| 20260507214517 | 48 | 257 | 7.0 | 11.3 | 0.00 | 0.18 | 0.17 | 80 | 1002.4 |
| 20260507213540 | 48 | 273 | 7.0 | 9.6 | 0.00 | 0.19 | 0.17 | 80 | 1002.6 |
| 20260507212524 | 49 | 269 | 7.0 | 9.6 | 0.00 | 0.19 | 0.17 | 80 | 1002.7 |
| 20260507211528 | 49 | 272 | 6.1 | 8.7 | 0.00 | 0.19 | 0.17 | 80 | 1000.0 |
| 20260507210531 | 51 | 274 | 5.2 | 7.0 | 0.00 | 0.19 | 0.17 | 80 | 1001.9 |
| 20260507205537 | 50 | 251 | 7.8 | 13.0 | 0.00 | 0.19 | 0.17 | 80 | 1002.2 |
| 20260507204541 | 49 | 237 | 4.3 | 7.0 | 0.00 | 0.19 | 0.17 | 82 | 1002.0 |
| 20260507203524 | 48 | 224 | 3.5 | 5.2 | 0.00 | 0.19 | 0.17 | 83 | 1002.2 |
| 20260507202528 | 48 | 3.5 | 3.5 | 0.00 | 0.19 | 0.17 | 84 | 1002.3 | |
| 20260507201532 | 46 | 236 | 3.5 | 5.2 | 0.00 | 0.19 | 0.17 | 84 | 1002.2 |
| 20260507200517 | 47 | 234 | 5.2 | 7.8 | 0.00 | 0.19 | 0.17 | 83 | 1002.5 |
| 20260507195521 | 47 | 250 | 5.2 | 7.8 | 0.00 | 0.19 | 0.17 | 83 | 1002.3 |
| 20260507194544 | 47 | 259 | 4.3 | 7.8 | 0.00 | 0.19 | 0.17 | 83 | 1002.2 |
| 20260507193528 | 47 | 286 | 7.0 | 9.6 | 0.00 | 0.19 | 0.17 | 82 | 1002.4 |
| 20260507192531 | 49 | 254 | 6.1 | 7.8 | 0.00 | 0.19 | 0.17 | 82 | 1002.5 |
| 20260507191517 | 49 | 284 | 6.1 | 9.6 | 0.00 | 0.19 | 0.17 | 82 | 1002.3 |
| 20260507190541 | 50 | 300 | 7.0 | 11.3 | 0.00 | 0.19 | 0.17 | 81 | 1002.1 |
| 20260507185525 | 52 | 282 | 4.3 | 6.1 | 0.00 | 0.19 | 0.17 | 80 | 1001.8 |
| 20260507184522 | 52 | 292 | 4.3 | 7.0 | 0.00 | 0.19 | 0.17 | 80 | 1001.8 |
| 20260507183520 | 52 | 275 | 2.6 | 4.3 | 0.00 | 0.19 | 0.17 | 81 | 1001.9 |
| 20260507182517 | 54 | 281 | 2.6 | 3.5 | 0.00 | 0.19 | 0.17 | 84 | 1002.0 |
| 20260507181535 | 50 | 272 | 2.6 | 4.3 | 0.00 | 0.21 | 0.17 | 86 | 1002.5 |
| 20260507180545 | 51 | 234 | 0.9 | 2.6 | 0.00 | 0.21 | 0.17 | 86 | 1002.2 |
| 20260507175528 | 51 | 256 | 3.5 | 5.2 | 0.00 | 0.22 | 0.17 | 86 | 1002.4 |
| 20260507174532 | 51 | 254 | 3.5 | 5.2 | 0.00 | 0.23 | 0.17 | 87 | 1002.7 |
| 20260507173537 | 50 | 229 | 4.3 | 6.1 | 0.00 | 0.25 | 0.17 | 88 | 1002.5 |
| 20260507172521 | 47 | 230 | 4.3 | 7.0 | 0.00 | 0.26 | 0.17 | 90 | 1002.4 |
| 20260507171525 | 47 | 242 | 5.2 | 7.8 | 0.01 | 0.27 | 0.17 | 91 | 1002.6 |
| 20260507170528 | 47 | 240 | 6.1 | 9.6 | 0.02 | 0.29 | 0.17 | 93 | 1002.8 |
| 20260507165532 | 47 | 215 | 2.6 | 5.2 | 0.05 | 0.30 | 0.17 | 94 | 1002.6 |
| 20260507164518 | 47 | 248 | 3.5 | 7.0 | 0.08 | 0.32 | 0.17 | 94 | 1002.8 |
| 20260507163541 | 46 | 210 | 4.3 | 7.8 | 0.13 | 0.33 | 0.17 | 94 | 1003.0 |
| 20260507162525 | 46 | 224 | 5.2 | 7.8 | 0.13 | 0.34 | 0.17 | 96 | 1003.0 |
| 20260507161529 | 46 | 231 | 2.6 | 4.3 | 0.14 | 0.34 | 0.16 | 96 | 1002.7 |
| 20260507160532 | 46 | 246 | 3.5 | 5.2 | 0.15 | 0.35 | 0.15 | 96 | 1003.2 |
| 20260507155538 | 46 | 187 | 1.7 | 2.6 | 0.12 | 0.34 | 0.12 | 95 | 1002.8 |
| 20260507154522 | 46 | 256 | 1.7 | 3.5 | 0.09 | 0.33 | 0.09 | 95 | 1003.1 |
| 20260507153525 | 46 | 281 | 2.6 | 3.5 | 0.04 | 0.30 | 0.04 | 95 | 1003.0 |
| 20260507152529 | 46 | 265 | 1.7 | 3.5 | 0.04 | 0.32 | 0.04 | 95 | 1003.2 |
| 20260507151532 | 46 | 257 | 2.6 | 3.5 | 0.02 | 0.33 | 0.02 | 94 | 1003.9 |
| 20260507150518 | 46 | 240 | 2.6 | 3.5 | 0.00 | 0.34 | 0.00 | 94 | 1003.8 |
| 20260507145522 | 46 | 284 | 1.7 | 2.6 | 0.00 | 0.36 | 0.00 | 94 | 1003.7 |
| 20260507144525 | 46 | 298 | 2.6 | 4.3 | 0.00 | 0.38 | 0.00 | 94 | 1003.7 |
| 20260507143523 | 46 | 264 | 2.6 | 4.3 | 0.00 | 0.40 | 0.00 | 94 | 1003.8 |
| 20260507142514 | 46 | 224 | 2.6 | 3.5 | 0.00 | 0.42 | 0.00 | 94 | 1003.9 |
| 20260507141518 | 46 | 261 | 2.6 | 5.2 | 0.00 | 0.44 | 0.00 | 94 | 1003.8 |
| 20260507140516 | 46 | 274 | 4.3 | 6.1 | 0.00 | 0.46 | 0.00 | 94 | 1004.1 |
| 20260507135525 | 46 | 256 | 5.2 | 7.8 | 0.00 | 0.48 | 0.00 | 94 | 1003.8 |
| 20260507134529 | 46 | 261 | 3.5 | 4.3 | 0.00 | 0.49 | 0.00 | 95 | 1003.7 |
| 20260507133515 | 46 | 254 | 5.2 | 7.0 | 0.00 | 0.50 | 0.00 | 95 | 1003.5 |
| 20260507132518 | 46 | 215 | 3.5 | 6.1 | 0.00 | 0.52 | 0.00 | 95 | 1003.4 |
| 20260507131522 | 46 | 241 | 5.2 | 7.0 | 0.00 | 0.52 | 0.00 | 95 | 1003.3 |
| 20260507130526 | 46 | 231 | 4.3 | 6.1 | 0.00 | 0.54 | 0.00 | 95 | 1003.4 |
| 20260507125529 | 46 | 251 | 3.5 | 6.1 | 0.00 | 0.56 | 0.00 | 96 | 1003.5 |
| 20260507124515 | 45 | 239 | 4.3 | 6.1 | 0.00 | 0.57 | 0.00 | 97 | 1004.1 |
| 20260507123519 | 45 | 251 | 4.3 | 6.1 | 0.00 | 0.58 | 0.00 | 97 | 1004.1 |
| 20260507122542 | 45 | 229 | 3.5 | 6.1 | 0.00 | 0.59 | 0.00 | 97 | 1003.8 |
| 20260507121526 | 45 | 223 | 3.5 | 5.2 | 0.00 | 0.60 | 0.00 | 98 | 1003.9 |
| 20260507120530 | 44 | 207 | 3.5 | 5.2 | 0.00 | 0.62 | 0.00 | 98 | 1003.4 |
| 20260507115535 | 44 | 220 | 2.6 | 4.3 | 0.00 | 0.63 | 0.00 | 98 | 1004.1 |
| 20260507114519 | 44 | 211 | 2.6 | 5.2 | 0.00 | 0.64 | 0.00 | 99 | 1003.9 |
| 20260507113522 | 44 | 204 | 2.6 | 4.3 | 0.00 | 0.64 | 0.00 | 99 | 1003.6 |
| 20260507112526 | 44 | 215 | 1.7 | 3.5 | 0.00 | 0.64 | 0.00 | 99 | 1003.5 |
| 20260507111530 | 43 | 232 | 2.6 | 3.5 | 0.00 | 0.64 | 0.00 | 99 | 1004.0 |
| 20260507110515 | 43 | 238 | 2.6 | 4.3 | 0.00 | 0.64 | 0.00 | 99 | 1004.1 |
| 20260507105519 | 43 | 222 | 2.6 | 4.3 | 0.00 | 0.64 | 0.00 | 99 | 1003.6 |
| 20260507104523 | 42 | 252 | 2.6 | 4.3 | 0.00 | 0.64 | 0.00 | 99 | 1004.4 |
| 20260507103526 | 42 | 243 | 2.6 | 5.2 | 0.00 | 0.64 | 0.00 | 99 | 1003.9 |
| 20260507102524 | 42 | 249 | 2.6 | 4.3 | 0.00 | 0.64 | 0.00 | 99 | 1003.6 |
| 20260507101516 | 42 | 215 | 2.6 | 4.3 | 0.00 | 0.64 | 0.00 | 99 | 1003.5 |
| 20260507100519 | 42 | 141 | 0.9 | 1.7 | 0.00 | 0.64 | 0.00 | 99 | 1003.0 |
| 20260507095537 | 42 | 192 | 1.7 | 2.6 | 0.00 | 0.64 | 0.00 | 99 | 1003.7 |
| 20260507094526 | 42 | 195 | 1.7 | 2.6 | 0.00 | 0.64 | 0.00 | 99 | 1003.5 |
| 20260507093530 | 42 | 197 | 1.7 | 2.6 | 0.00 | 0.64 | 0.00 | 99 | 1003.7 |
| 20260507092515 | 42 | 228 | 1.7 | 2.6 | 0.00 | 0.64 | 0.00 | 99 | 1003.9 |
| 20260507091539 | 42 | 209 | 0.9 | 1.7 | 0.00 | 0.64 | 0.00 | 99 | 1004.2 |
| 20260507090523 | 42 | 220 | 0.9 | 1.7 | 0.00 | 0.64 | 0.00 | 99 | 1004.1 |
| 20260507085547 | 42 | 198 | 1.7 | 1.7 | 0.00 | 0.64 | 0.00 | 99 | 1004.2 |
| 20260507084530 | 42 | 190 | 0.9 | 2.6 | 0.00 | 0.64 | 0.00 | 99 | 1004.2 |
| 20260507083516 | 41 | 225 | 1.7 | 2.6 | 0.00 | 0.64 | 0.00 | 99 | 1004.2 |
| 20260507082519 | 41 | 247 | 0.9 | 1.7 | 0.00 | 0.64 | 0.00 | 99 | 1004.3 |
| 20260507081523 | 41 | 254 | 0.0 | 1.7 | 0.00 | 0.64 | 0.00 | 99 | 1004.3 |
| 20260507080527 | 41 | 0.0 | 0.0 | 0.00 | 0.64 | 0.00 | 99 | 1004.1 | |
| 20260507075530 | 41 | 0.0 | 0.0 | 0.00 | 0.64 | 0.00 | 99 | 1004.2 | |
| 20260507074516 | 41 | 225 | 0.9 | 1.7 | 0.00 | 0.64 | 0.00 | 99 | 1004.2 |
| 20260507073520 | 41 | 0.0 | 0.0 | 0.00 | 0.64 | 0.00 | 99 | 1004.3 | |
| 20260507072523 | 41 | 249 | 0.9 | 2.6 | 0.00 | 0.64 | 0.00 | 99 | 1004.4 |
| 20260507071527 | 41 | 0.0 | 0.0 | 0.00 | 0.64 | 0.00 | 99 | 1004.4 | |
| 20260507070551 | 41 | 0.0 | 0.0 | 0.00 | 0.64 | 0.00 | 99 | 1004.4 | |
| 20260507065516 | 41 | 0.0 | 0.0 | 0.00 | 0.64 | 0.00 | 99 | 1004.4 | |
| 20260507064520 | 40 | 0.0 | 0.0 | 0.00 | 0.64 | 0.00 | 99 | 1004.6 | |
| 20260507063523 | 40 | 0.0 | 0.0 | 0.00 | 0.64 | 0.00 | 99 | 1004.7 | |
| 20260507062527 | 40 | 0.0 | 0.0 | 0.00 | 0.64 | 0.00 | 99 | 1004.7 | |
| 20260507061525 | 40 | 0.0 | 0.0 | 0.00 | 0.64 | 0.00 | 99 | 1004.7 | |
| 20260507060516 | 40 | 0.0 | 0.0 | 0.00 | 0.64 | 0.00 | 99 | 1004.9 | |
| 20260507055520 | 41 | 0.0 | 0.0 | 0.00 | 0.64 | 0.00 | 99 | 1005.1 | |
| 20260507054517 | 41 | 203 | 0.0 | 1.7 | 0.00 | 0.64 | 0.00 | 99 | 1004.9 |
| 20260507053515 | 41 | 0.0 | 0.9 | 0.00 | 0.64 | 0.00 | 99 | 1005.1 | |
| 20260507052551 | 41 | 0.0 | 0.0 | 0.00 | 0.64 | 0.00 | 99 | 1005.2 | |
| 20260507051517 | 42 | 211 | 0.9 | 1.7 | 0.00 | 0.64 | 0.00 | 98 | 1005.4 |
| 20260507050520 | 42 | 214 | 1.7 | 2.6 | 0.00 | 0.64 | 0.00 | 98 | 1005.3 |
| 20260507045604 | 42 | 158 | 0.9 | 1.7 | 0.00 | 0.64 | 0.00 | 98 | 1005.3 |
| 20260507044528 | 42 | 165 | 0.0 | 1.7 | 0.00 | 0.64 | 0.00 | 98 | 1005.4 |
| 20260507043551 | 43 | 194 | 0.9 | 2.6 | 0.00 | 0.64 | 0.00 | 98 | 1005.3 |
| 20260507042517 | 43 | 221 | 1.7 | 4.3 | 0.00 | 0.64 | 0.00 | 98 | 1005.3 |
| 20260507041521 | 43 | 237 | 2.6 | 5.2 | 0.00 | 0.64 | 0.00 | 98 | 1005.5 |
| 20260507040524 | 43 | 267 | 2.6 | 4.3 | 0.00 | 0.64 | 0.00 | 98 | 1005.4 |
| 20260507035528 | 43 | 242 | 2.6 | 3.5 | 0.00 | 0.64 | 0.00 | 98 | 1005.7 |
| 20260507034531 | 42 | 215 | 1.7 | 3.5 | 0.00 | 0.64 | 0.00 | 98 | 1005.9 |
| 20260507033517 | 42 | 186 | 1.7 | 3.5 | 0.00 | 0.64 | 0.00 | 98 | 1005.8 |
| 20260507032521 | 42 | 218 | 1.7 | 2.6 | 0.00 | 0.64 | 0.00 | 98 | 1005.8 |
| 20260507031524 | 42 | 210 | 1.7 | 2.6 | 0.00 | 0.64 | 0.00 | 98 | 1005.9 |
| 20260507030528 | 42 | 247 | 1.7 | 3.5 | 0.00 | 0.64 | 0.00 | 98 | 1005.7 |
| 20260507025531 | 42 | 225 | 2.6 | 4.3 | 0.00 | 0.64 | 0.00 | 98 | 1005.8 |